Andes, New York
Current Conditions -  °F | °C
As of 5:35 PM on Tuesday 21 Oct 2014 (Local Time) from KMSV Reporting Station
Overcast Overcast  
Wind Chill: 52°   Ceiling: 3200
Heat Index: 52°   Visibility: 10mi
Dew Point: 48°   Wind: 5mph
Humidity: 88%   Direction: 70°ENE
Pressure: 29.89"   Gusts: NA
Location:  42.19°N, 74.79°W
Report Text: KMSV 212135Z AUTO 07004KT 10SM BKN032 OVC060 11/09 A2989 RMK AO1
Loading
Personal Weather Stations






























Interactive Weather Map
Tropical Storm Tracking
New forecast layout! Learn more

10-Day Weather Forecast

Advertisements
Track Severe Weather on mobile